createdAt,value
2023-03-15T00:01:33.747Z,99514.50
2023-03-15T00:04:17.633Z,99505.66
2023-03-15T00:07:03.365Z,99498.91
2023-03-15T00:09:47.120Z,99483.19
2023-03-15T00:12:30.964Z,99492.13
2023-03-15T00:15:15.796Z,99493.13
2023-03-15T00:17:59.666Z,99493.41
2023-03-15T00:20:43.965Z,99475.47
2023-03-15T00:23:29.136Z,99473.13
2023-03-15T00:26:13.285Z,99474.84
2023-03-15T00:28:56.976Z,99476.31
2023-03-15T00:31:40.684Z,99467.59
2023-03-15T00:34:26.676Z,99460.09
2023-03-15T00:37:11.549Z,99454.16
2023-03-15T00:39:56.769Z,99455.72
2023-03-15T00:42:40.701Z,99453.28
2023-03-15T00:45:24.733Z,99434.81
2023-03-15T00:48:08.682Z,99439.41
2023-03-15T00:50:52.427Z,99431.38
2023-03-15T00:53:38.008Z,99429.63
2023-03-15T00:56:25.240Z,99339.72
2023-03-15T00:59:09.043Z,99418.69
2023-03-15T01:01:52.994Z,99409.75
2023-03-15T01:04:39.292Z,99386.72
2023-03-15T01:07:23.026Z,99383.53
2023-03-15T01:10:09.109Z,99351.38
2023-03-15T01:12:54.257Z,99394.69
2023-03-15T01:15:38.028Z,99377.56
2023-03-15T01:18:21.877Z,99357.53
2023-03-15T01:21:08.246Z,99376.84
2023-03-15T01:23:52.346Z,99387.13
2023-03-15T01:26:38.868Z,99380.34
2023-03-15T01:29:24.263Z,99379.06
2023-03-15T01:32:08.495Z,99370.97
2023-03-15T01:34:52.617Z,99373.94
2023-03-15T01:37:36.489Z,99374.69
2023-03-15T01:40:21.116Z,99333.09
2023-03-15T01:43:19.224Z,99356.44
2023-03-15T01:46:27.978Z,99359.50
2023-03-15T01:49:24.026Z,99368.47
2023-03-15T01:52:13.069Z,99369.16
2023-03-15T01:55:08.858Z,99373.25
2023-03-15T01:57:58.689Z,99367.34
2023-03-15T02:00:44.921Z,99365.91
2023-03-15T02:03:38.285Z,99347.34
2023-03-15T02:06:23.418Z,99355.72
2023-03-15T02:09:15.165Z,99356.84
2023-03-15T02:12:00.288Z,99338.66
2023-03-15T02:14:44.799Z,99356.56
2023-03-15T02:17:38.148Z,99361.91
2023-03-15T02:20:34.841Z,99355.69
2023-03-15T02:23:20.190Z,99355.22
2023-03-15T02:26:15.051Z,99349.91
2023-03-15T02:29:00.506Z,99354.53
2023-03-15T02:31:45.044Z,99349.56
2023-03-15T02:34:28.805Z,99355.31
2023-03-15T02:37:12.556Z,99345.72
2023-03-15T02:39:56.654Z,99363.47
2023-03-15T02:42:42.628Z,99329.78
2023-03-15T02:45:29.030Z,99316.78
2023-03-15T02:48:13.804Z,99340.91
2023-03-15T02:50:57.707Z,99342.91
2023-03-15T02:53:41.401Z,99314.22
2023-03-15T02:56:25.322Z,99350.94
2023-03-15T02:59:09.452Z,99338.69
2023-03-15T03:01:55.827Z,99355.34
2023-03-15T03:04:39.750Z,99347.31
2023-03-15T03:07:23.615Z,99352.34
2023-03-15T03:10:17.847Z,99360.00
2023-03-15T03:13:12.333Z,99333.09
2023-03-15T03:15:59.692Z,99345.81
2023-03-15T03:18:48.079Z,99350.94
2023-03-15T03:21:32.476Z,99343.63
2023-03-15T03:24:16.653Z,99317.34
2023-03-15T03:27:00.409Z,99354.00
2023-03-15T03:29:47.403Z,99347.66
2023-03-15T03:32:33.105Z,99357.47
2023-03-15T03:35:18.476Z,99355.34
2023-03-15T03:38:02.314Z,99351.38
2023-03-15T03:40:51.751Z,99346.25
2023-03-15T03:43:35.747Z,99331.78
2023-03-15T03:46:19.893Z,99348.31
2023-03-15T03:49:08.572Z,99350.50
2023-03-15T03:51:53.650Z,99323.91
2023-03-15T03:54:37.513Z,99340.59
2023-03-15T03:57:21.706Z,99353.50
2023-03-15T04:00:06.866Z,99357.88
2023-03-15T04:02:58.812Z,99349.72
2023-03-15T04:05:43.057Z,99346.78
2023-03-15T04:08:34.342Z,99354.41
2023-03-15T04:11:18.721Z,99346.03
2023-03-15T04:14:10.297Z,99349.28
2023-03-15T04:16:55.620Z,99341.31
2023-03-15T04:19:40.219Z,99334.59
2023-03-15T04:22:25.797Z,99321.38
2023-03-15T04:25:31.216Z,99329.44
2023-03-15T04:28:39.083Z,99327.09
2023-03-15T04:31:43.364Z,99336.44
2023-03-15T04:34:51.508Z,99351.06
2023-03-15T04:37:59.103Z,99341.09
2023-03-15T04:41:10.953Z,99331.81
2023-03-15T04:44:16.473Z,99332.97
2023-03-15T04:47:22.842Z,99291.66
2023-03-15T04:50:40.096Z,99329.97
2023-03-15T04:53:43.576Z,99328.09
2023-03-15T04:56:47.200Z,99325.34
2023-03-15T04:59:51.240Z,99337.59
2023-03-15T05:02:52.287Z,99340.72
2023-03-15T05:06:00.139Z,99314.38
2023-03-15T05:09:04.583Z,99329.94
2023-03-15T05:11:49.833Z,99324.81
2023-03-15T05:15:12.903Z,99286.41
2023-03-15T05:18:19.222Z,99313.66
2023-03-15T05:21:25.791Z,99307.31
2023-03-15T05:24:32.721Z,99254.00
2023-03-15T05:27:39.973Z,99293.50
2023-03-15T05:30:32.143Z,99293.50
2023-03-15T05:33:26.384Z,99291.97
2023-03-15T05:36:29.477Z,99296.91
2023-03-15T05:39:34.801Z,99293.50
2023-03-15T05:42:25.458Z,99292.66
2023-03-15T05:45:36.798Z,99286.34
2023-03-15T05:48:39.187Z,99257.91
2023-03-15T05:51:45.764Z,99274.09
2023-03-15T05:54:36.400Z,99275.94
2023-03-15T05:57:58.760Z,99279.44
2023-03-15T06:00:55.782Z,99252.97
2023-03-15T06:03:59.588Z,99271.81
2023-03-15T06:06:47.452Z,99266.59
2023-03-15T06:09:31.761Z,99258.44
2023-03-15T06:12:15.938Z,99244.41
2023-03-15T06:15:00.485Z,99247.63
2023-03-15T06:17:49.056Z,99242.06
2023-03-15T06:20:33.428Z,99237.44
2023-03-15T06:23:23.932Z,99225.09
2023-03-15T06:26:07.847Z,99238.41
2023-03-15T06:28:52.044Z,99228.84
2023-03-15T06:31:36.831Z,99223.03
2023-03-15T06:34:25.762Z,99229.13
2023-03-15T06:37:16.360Z,99206.00
2023-03-15T06:40:02.079Z,99222.00
2023-03-15T06:42:46.745Z,99205.25
2023-03-15T06:45:37.159Z,99224.09
2023-03-15T06:48:22.255Z,99220.63
2023-03-15T06:51:07.581Z,99217.41
2023-03-15T06:53:51.581Z,99222.28
2023-03-15T06:56:37.512Z,99216.47
2023-03-15T06:59:21.398Z,99213.00
2023-03-15T07:02:05.778Z,99205.34
2023-03-15T07:04:49.727Z,99199.34
2023-03-15T07:07:35.068Z,99216.66
2023-03-15T07:10:19.139Z,99212.03
2023-03-15T07:13:02.948Z,99226.09
2023-03-15T07:15:47.868Z,99213.38
2023-03-15T07:18:34.465Z,99192.94
2023-03-15T07:21:18.644Z,99225.31
2023-03-15T07:24:04.503Z,99225.91
2023-03-15T07:26:48.847Z,99231.41
2023-03-15T07:29:33.925Z,99227.75
2023-03-15T07:32:18.536Z,99228.78
2023-03-15T07:35:02.546Z,99217.47
2023-03-15T07:37:47.417Z,99165.94
2023-03-15T07:40:33.001Z,99211.56
2023-03-15T07:43:17.675Z,99248.06
2023-03-15T07:46:07.130Z,99220.25
2023-03-15T07:48:51.164Z,99241.28
2023-03-15T07:51:35.196Z,99179.66
2023-03-15T07:54:19.593Z,99240.94
2023-03-15T07:57:05.667Z,99206.38
2023-03-15T07:59:49.467Z,99239.41
2023-03-15T08:02:33.312Z,99241.16
2023-03-15T08:05:19.075Z,99223.88
2023-03-15T08:08:03.248Z,99240.19
2023-03-15T08:10:47.349Z,99231.84
2023-03-15T08:13:32.826Z,99234.91
2023-03-15T08:16:16.666Z,99238.75
2023-03-15T08:19:00.881Z,99245.84
2023-03-15T08:21:45.463Z,99235.13
2023-03-15T08:24:29.945Z,99240.97
2023-03-15T08:27:13.768Z,99231.47
2023-03-15T08:29:59.105Z,99232.38
2023-03-15T08:32:43.849Z,99236.22
2023-03-15T08:35:27.731Z,99236.22
2023-03-15T08:38:12.518Z,99230.09
2023-03-15T08:41:00.064Z,99229.03
2023-03-15T08:43:43.869Z,99195.84
2023-03-15T08:46:29.382Z,99231.94
2023-03-15T08:49:13.442Z,99228.41
2023-03-15T08:51:57.415Z,99202.50
2023-03-15T08:54:41.488Z,99230.72
2023-03-15T08:57:27.360Z,99239.97
2023-03-15T09:00:17.407Z,99225.22
2023-03-15T09:03:02.563Z,99227.56
2023-03-15T09:05:46.777Z,99228.50
2023-03-15T09:08:33.423Z,99207.09
2023-03-15T09:11:17.487Z,99216.56
2023-03-15T09:14:01.524Z,99215.63
2023-03-15T09:16:45.435Z,99209.34
2023-03-15T09:19:32.454Z,99210.81
2023-03-15T09:22:23.861Z,99200.72
2023-03-15T09:25:19.432Z,99211.44
2023-03-15T09:28:03.452Z,99211.47
2023-03-15T09:30:47.364Z,99088.19
2023-03-15T09:33:33.219Z,99204.88
2023-03-15T09:36:18.453Z,99193.44
2023-03-15T09:39:02.818Z,99105.16
2023-03-15T09:41:49.796Z,99202.53
2023-03-15T09:44:46.067Z,99187.31
2023-03-15T09:47:38.597Z,99186.66
2023-03-15T09:50:28.254Z,99185.50
2023-03-15T09:53:18.565Z,99168.00
2023-03-15T09:56:02.305Z,99186.81
2023-03-15T09:58:46.770Z,99184.72
2023-03-15T10:01:33.685Z,99180.63
2023-03-15T10:04:28.787Z,99175.06
2023-03-15T10:07:16.682Z,99178.31
2023-03-15T10:10:04.997Z,99176.91
2023-03-15T10:13:00.103Z,99178.22
2023-03-15T10:15:54.035Z,99168.75
2023-03-15T10:18:54.286Z,99135.22
2023-03-15T10:21:51.240Z,99172.13
2023-03-15T10:24:39.936Z,99162.91
2023-03-15T10:27:33.378Z,99117.41
2023-03-15T10:30:20.703Z,99140.91
2023-03-15T10:33:12.193Z,99134.06
2023-03-15T10:36:09.776Z,99133.38
2023-03-15T10:38:54.434Z,99135.56
2023-03-15T10:41:41.977Z,99127.03
2023-03-15T10:44:28.474Z,99127.22
2023-03-15T10:47:23.646Z,99125.25
2023-03-15T10:50:08.859Z,99106.53
2023-03-15T10:52:56.749Z,99103.59
2023-03-15T10:55:45.532Z,99083.38
2023-03-15T10:58:34.709Z,99104.66
2023-03-15T11:01:27.975Z,99093.47
2023-03-15T11:04:17.292Z,99092.16
2023-03-15T11:07:03.439Z,99106.25
2023-03-15T11:09:54.616Z,99082.31
2023-03-15T11:12:38.530Z,99059.91
2023-03-15T11:15:22.268Z,99093.91
2023-03-15T11:18:09.460Z,99077.13
2023-03-15T11:20:54.924Z,99074.16
2023-03-15T11:23:41.530Z,99078.00
2023-03-15T11:26:32.491Z,99077.50
2023-03-15T11:29:22.880Z,99043.53
2023-03-15T11:32:15.367Z,99080.47
2023-03-15T11:35:05.415Z,99064.47
2023-03-15T11:37:56.721Z,99064.19
2023-03-15T11:40:45.227Z,98957.34
2023-03-15T11:43:34.171Z,99066.44
2023-03-15T11:46:25.966Z,99048.63
2023-03-15T11:49:17.163Z,99047.50
2023-03-15T11:52:02.280Z,99037.38
2023-03-15T11:54:47.364Z,99040.09
2023-03-15T11:57:45.814Z,99046.88
2023-03-15T12:00:51.620Z,99045.00
2023-03-15T12:03:41.187Z,99049.16
2023-03-15T12:06:40.582Z,99054.09
2023-03-15T12:09:52.728Z,99055.19
2023-03-15T12:12:38.170Z,99050.91
2023-03-15T12:15:47.900Z,99050.88
2023-03-15T12:18:34.852Z,99057.53
2023-03-15T12:21:23.300Z,99064.41
2023-03-15T12:24:09.354Z,99060.91
2023-03-15T12:27:02.674Z,99062.31
2023-03-15T12:29:48.395Z,99063.06
2023-03-15T12:32:32.477Z,99054.41
2023-03-15T12:35:21.192Z,99057.41
2023-03-15T12:38:05.184Z,99052.56
2023-03-15T12:40:53.918Z,99059.47
2023-03-15T12:43:41.249Z,99073.03
2023-03-15T12:47:00.008Z,99067.25
2023-03-15T12:49:44.953Z,99065.81
2023-03-15T12:52:44.265Z,99066.44
2023-03-15T12:55:33.001Z,99064.31
2023-03-15T12:58:20.044Z,99066.38
2023-03-15T13:01:07.622Z,99074.53
2023-03-15T13:03:56.666Z,99061.38
2023-03-15T13:06:52.133Z,99069.28
2023-03-15T13:09:51.134Z,99065.97
2023-03-15T13:12:41.784Z,99068.75
2023-03-15T13:15:29.996Z,99053.63
2023-03-15T13:18:19.803Z,99066.75
2023-03-15T13:21:15.756Z,99034.34
2023-03-15T13:24:00.907Z,99049.41
2023-03-15T13:26:55.156Z,99038.63
2023-03-15T13:29:39.125Z,99058.66
2023-03-15T13:32:24.773Z,99047.91
2023-03-15T13:35:14.201Z,99050.44
2023-03-15T13:38:07.552Z,99047.88
2023-03-15T13:40:51.386Z,99046.09
2023-03-15T13:43:37.054Z,99048.81
2023-03-15T13:46:24.065Z,99029.88
2023-03-15T13:49:08.202Z,99046.06
2023-03-15T13:51:54.445Z,99051.16
2023-03-15T13:54:38.968Z,99046.78
2023-03-15T13:57:24.690Z,99049.97
2023-03-15T14:00:12.529Z,99039.47
2023-03-15T14:02:59.889Z,99037.47
2023-03-15T14:05:47.519Z,99038.84
2023-03-15T14:08:36.124Z,99029.38
2023-03-15T14:11:32.604Z,99026.44
2023-03-15T14:14:23.776Z,98992.66
2023-03-15T14:17:18.555Z,99009.25
2023-03-15T14:20:09.271Z,99041.13
2023-03-15T14:22:53.242Z,99039.00
2023-03-15T14:25:38.798Z,99041.66
2023-03-15T14:28:24.586Z,99022.97
2023-03-15T14:31:08.903Z,99032.22
2023-03-15T14:33:55.619Z,99025.78
2023-03-15T14:36:43.501Z,99025.75
2023-03-15T14:39:31.321Z,99022.81
2023-03-15T14:42:16.599Z,99031.50
2023-03-15T14:45:00.541Z,99008.47
2023-03-15T14:47:56.640Z,99031.66
2023-03-15T14:50:43.253Z,99024.59
2023-03-15T14:53:32.335Z,99004.31
2023-03-15T14:56:18.646Z,99019.13
2023-03-15T14:59:12.291Z,99026.19
2023-03-15T15:02:00.446Z,99032.63
2023-03-15T15:04:44.635Z,99047.63
2023-03-15T15:07:28.730Z,99037.69
2023-03-15T15:10:13.201Z,99021.91
2023-03-15T15:13:06.025Z,99035.22
2023-03-15T15:15:56.072Z,99012.34
2023-03-15T15:18:40.628Z,99004.00
2023-03-15T15:21:28.468Z,99031.06
2023-03-15T15:24:15.691Z,99019.59
2023-03-15T15:26:59.471Z,99023.94
2023-03-15T15:29:43.336Z,99023.03
2023-03-15T15:32:28.645Z,99022.09
2023-03-15T15:35:14.073Z,99018.03
2023-03-15T15:37:58.537Z,99001.44
2023-03-15T15:40:43.143Z,98986.41
2023-03-15T15:43:27.964Z,99020.50
2023-03-15T15:46:13.655Z,99021.78
2023-03-15T15:48:59.211Z,99025.97
2023-03-15T15:51:46.110Z,99018.78
2023-03-15T15:54:31.776Z,99038.25
2023-03-15T15:57:16.565Z,99002.16
2023-03-15T16:00:01.505Z,99007.84
2023-03-15T16:02:47.426Z,99044.78
2023-03-15T16:05:34.323Z,99041.97
2023-03-15T16:08:23.675Z,99002.69
2023-03-15T16:11:08.986Z,99048.22
2023-03-15T16:13:55.081Z,99046.78
2023-03-15T16:16:39.256Z,99061.16
2023-03-15T16:19:23.588Z,99060.78
2023-03-15T16:22:09.431Z,99016.97
2023-03-15T16:24:56.055Z,99054.66
2023-03-15T16:27:40.059Z,99021.31
2023-03-15T16:30:26.437Z,99059.72
2023-03-15T16:33:16.373Z,99033.31
2023-03-15T16:36:01.948Z,99057.19
2023-03-15T16:38:47.673Z,99062.03
2023-03-15T16:41:31.770Z,99012.94
2023-03-15T16:44:17.400Z,99065.41
2023-03-15T16:47:01.542Z,99051.19
2023-03-15T16:49:45.809Z,99034.50
2023-03-15T16:52:30.401Z,99044.53
2023-03-15T16:55:18.538Z,99062.47
2023-03-15T16:58:04.510Z,99032.34
2023-03-15T17:00:48.788Z,99073.63
2023-03-15T17:03:34.000Z,99056.00
2023-03-15T17:06:23.322Z,99075.75
2023-03-15T17:09:10.639Z,99042.88
2023-03-15T17:11:56.406Z,99031.75
2023-03-15T17:14:41.284Z,99045.53
2023-03-15T17:17:26.988Z,99051.25
2023-03-15T17:20:14.245Z,99039.88
2023-03-15T17:23:03.961Z,99080.59
2023-03-15T17:25:49.626Z,99060.09
2023-03-15T17:28:35.129Z,99087.41
2023-03-15T17:31:25.742Z,99062.09
2023-03-15T17:34:09.958Z,99059.50
2023-03-15T17:36:56.113Z,99089.19
2023-03-15T17:39:40.291Z,99087.81
2023-03-15T17:42:24.406Z,99050.25
2023-03-15T17:45:17.525Z,99055.34
2023-03-15T17:48:02.174Z,99080.00
2023-03-15T17:50:46.170Z,99073.44
2023-03-15T17:53:29.899Z,99064.94
2023-03-15T17:56:14.130Z,99067.09
2023-03-15T17:58:58.466Z,99063.00
2023-03-15T18:01:45.813Z,99069.66
2023-03-15T18:04:29.638Z,99064.03
2023-03-15T18:07:13.434Z,99070.81
2023-03-15T18:09:57.457Z,99034.38
2023-03-15T18:12:43.228Z,99059.63
2023-03-15T18:15:27.064Z,99052.50
2023-03-15T18:18:12.367Z,99073.75
2023-03-15T18:20:56.249Z,99076.19
2023-03-15T18:23:40.164Z,99056.81
2023-03-15T18:26:24.403Z,99074.88
2023-03-15T18:29:08.221Z,99072.81
2023-03-15T18:31:52.502Z,99073.75
2023-03-15T18:34:38.087Z,99070.88
2023-03-15T18:37:21.996Z,99040.69
2023-03-15T18:40:06.980Z,99072.50
2023-03-15T18:42:51.038Z,99038.91
2023-03-15T18:45:36.762Z,99071.00
2023-03-15T18:48:34.111Z,99039.88
2023-03-15T18:51:28.317Z,99071.03
2023-03-15T18:54:12.211Z,99076.47
2023-03-15T18:56:56.125Z,99081.47
2023-03-15T18:59:40.148Z,99070.84
2023-03-15T19:02:24.134Z,99080.66
2023-03-15T19:05:09.092Z,99079.69
2023-03-15T19:07:54.547Z,99092.53
2023-03-15T19:10:38.361Z,99087.56
2023-03-15T19:13:22.296Z,99053.97
2023-03-15T19:16:06.827Z,99015.63
2023-03-15T19:18:51.712Z,99091.69
2023-03-15T19:21:35.666Z,99095.22
2023-03-15T19:24:20.916Z,99100.88
2023-03-15T19:27:05.118Z,99089.38
2023-03-15T19:29:49.020Z,99087.88
2023-03-15T19:32:33.097Z,99087.91
2023-03-15T19:35:17.896Z,99066.78
2023-03-15T19:38:02.708Z,99081.81
2023-03-15T19:40:48.225Z,99099.75
2023-03-15T19:43:32.811Z,99102.47
2023-03-15T19:46:18.076Z,99101.63
2023-03-15T19:49:02.466Z,99086.75
2023-03-15T19:51:46.461Z,99049.34
2023-03-15T19:54:34.098Z,98979.22
2023-03-15T19:57:19.453Z,99089.19
2023-03-15T20:00:03.743Z,99085.06
2023-03-15T20:02:49.117Z,99068.34
2023-03-15T20:05:33.079Z,99082.31
2023-03-15T20:08:17.258Z,99083.00
2023-03-15T20:11:01.421Z,99090.34
2023-03-15T20:13:47.646Z,99074.94
2023-03-15T20:16:32.251Z,99060.94
2023-03-15T20:19:16.406Z,99080.56
2023-03-15T20:22:00.341Z,99064.94
2023-03-15T20:24:44.461Z,99094.19
2023-03-15T20:27:28.660Z,99080.56
2023-03-15T20:30:16.387Z,99091.66
2023-03-15T20:33:00.579Z,99105.53
2023-03-15T20:35:44.592Z,99118.75
2023-03-15T20:38:29.420Z,99086.28
2023-03-15T20:41:14.479Z,99115.78
2023-03-15T20:43:58.477Z,99108.50
2023-03-15T20:46:44.109Z,99127.38
2023-03-15T20:49:29.347Z,99132.75
2023-03-15T20:52:13.522Z,99127.50
2023-03-15T20:54:57.461Z,99116.63
2023-03-15T20:57:42.818Z,99114.69
2023-03-15T21:00:30.172Z,99126.47
2023-03-15T21:03:17.670Z,99122.59
2023-03-15T21:06:02.195Z,99126.06
2023-03-15T21:08:46.096Z,99098.22
2023-03-15T21:11:30.581Z,99119.63
2023-03-15T21:14:14.844Z,99128.59
2023-03-15T21:17:00.153Z,99126.47
2023-03-15T21:19:45.379Z,99132.53
2023-03-15T21:22:29.261Z,99105.69
2023-03-15T21:25:14.534Z,99134.94
2023-03-15T21:27:58.364Z,99133.78
2023-03-15T21:30:42.519Z,99133.75
2023-03-15T21:33:27.993Z,99118.34
2023-03-15T21:36:13.230Z,99124.47
2023-03-15T21:38:57.095Z,99140.00
2023-03-15T21:41:41.294Z,99115.44
2023-03-15T21:44:25.368Z,99144.69
2023-03-15T21:47:09.152Z,99150.22
2023-03-15T21:49:54.142Z,99164.19
2023-03-15T21:52:39.486Z,99163.84
2023-03-15T21:55:23.350Z,99163.53
2023-03-15T21:58:07.099Z,99161.53
2023-03-15T22:00:51.378Z,99157.44
2023-03-15T22:03:36.391Z,99167.91
2023-03-15T22:06:20.314Z,99160.41
2023-03-15T22:09:05.641Z,99162.56
2023-03-15T22:11:49.887Z,99167.09
2023-03-15T22:14:33.599Z,99152.50
2023-03-15T22:17:17.479Z,99149.97
2023-03-15T22:20:01.279Z,99146.75
2023-03-15T22:22:47.301Z,99146.97
2023-03-15T22:25:32.566Z,99130.59
2023-03-15T22:28:16.696Z,99128.72
2023-03-15T22:31:01.746Z,99122.28
2023-03-15T22:33:46.218Z,99098.06
2023-03-15T22:36:30.189Z,99054.41
2023-03-15T22:39:14.434Z,99088.28
2023-03-15T22:41:59.638Z,99073.00
2023-03-15T22:44:43.368Z,99123.63
2023-03-15T22:47:27.286Z,99126.06
2023-03-15T22:50:12.570Z,99146.88
2023-03-15T22:52:56.689Z,99157.47
2023-03-15T22:55:40.522Z,99151.25
2023-03-15T22:58:26.179Z,99150.91
2023-03-15T23:01:10.405Z,99144.91
2023-03-15T23:03:54.199Z,99148.94
2023-03-15T23:06:38.060Z,99163.69
2023-03-15T23:09:22.633Z,99158.81
2023-03-15T23:12:07.057Z,99168.66
2023-03-15T23:14:52.506Z,99122.69
2023-03-15T23:17:36.347Z,99146.88
2023-03-15T23:20:20.760Z,99153.72
2023-03-15T23:23:04.491Z,99138.66
2023-03-15T23:25:48.468Z,99164.19
2023-03-15T23:28:32.265Z,99155.16
2023-03-15T23:31:17.459Z,99155.78
2023-03-15T23:34:01.348Z,99158.66
2023-03-15T23:36:45.519Z,99154.38
2023-03-15T23:39:29.823Z,99159.38
2023-03-15T23:42:13.998Z,99126.06
2023-03-15T23:44:57.800Z,99145.63
2023-03-15T23:47:43.339Z,99145.81
2023-03-15T23:50:28.292Z,99146.75
2023-03-15T23:53:12.424Z,99145.16
2023-03-15T23:55:56.470Z,99126.81
2023-03-15T23:58:40.792Z,99125.91
